Lenox, Alabama
Current Conditions -  °F | °C
As of 5:53 PM on Monday 20 Oct 2014 (Local Time) from KGZH Reporting Station
Clear Clear  
Wind Chill: 71°   Ceiling: Unl
Heat Index: 71°   Visibility: 10mi
Dew Point: 51°   Wind: 3mph
Humidity: 49%   Direction: 330°NNW
Pressure: 30"   Gusts: NA
Location:  31.34°N, 87.19°W
Report Text: KGZH 202253Z AUTO 33003KT 10SM CLR 22/11 A3000 RMK AO2 SLP157 T02170106
Loading
Personal Weather Stations






























Interactive Weather Map
Tropical Storm Tracking
New forecast layout! Learn more

10-Day Weather Forecast

Advertisements
Track Severe Weather on mobile